Time;durP1;ratioP1;P1;durP2;ratioP2;P2;SDS_P1;SDS_P2;PMS_P1;PMS_P2;Temp;Humidity;BMP_temperature;BMP_pressure;BME280_temperature;BME280_humidity;BME280_pressure;Samples;Min_cycle;Max_cycle;Signal;HPM_P1;HPM_P2
2021/12/06 04:03:06;;;;;;;31.88;18.67;;;0.80;95.80;;;;;;5008262;28;20629;-49
2021/12/06 04:05:32;;;;;;;35.78;21.95;;;0.80;95.90;;;;;;5007667;28;20500;-51
2021/12/06 04:07:58;;;;;;;33.78;23.92;;;1.00;96.00;;;;;;5007772;28;20030;-51
2021/12/06 04:10:26;;;;;;;40.83;24.60;;;1.00;96.00;;;;;;5007531;28;20026;-50
2021/12/06 04:12:55;;;;;;;42.30;24.00;;;1.10;96.00;;;;;;5007701;28;20034;-49
2021/12/06 04:15:21;;;;;;;38.30;22.23;;;1.10;96.00;;;;;;5007441;28;20030;-50
2021/12/06 04:17:47;;;;;;;33.42;22.08;;;1.00;96.00;;;;;;5007267;28;20040;-50
2021/12/06 04:20:13;;;;;;;38.13;23.05;;;1.10;96.00;;;;;;5007204;28;20460;-51
2021/12/06 04:22:41;;;;;;;36.38;21.60;;;1.10;95.90;;;;;;5007463;28;20030;-49
2021/12/06 04:25:09;;;;;;;36.45;22.60;;;1.30;96.00;;;;;;5007468;28;20094;-53
2021/12/06 04:27:36;;;;;;;38.90;21.00;;;1.30;95.90;;;;;;5007410;28;20389;-50
2021/12/06 04:30:06;;;;;;;39.75;21.60;;;1.10;95.60;;;;;;5007102;28;20026;-49
2021/12/06 04:32:32;;;;;;;34.83;20.38;;;1.10;95.50;;;;;;5007555;28;20040;-50
2021/12/06 04:34:57;;;;;;;34.67;20.25;;;1.20;95.50;;;;;;5007624;28;20385;-49
2021/12/06 04:37:23;;;;;;;40.47;22.73;;;1.20;95.20;;;;;;5007336;28;20063;-50
2021/12/06 04:39:49;;;;;;;40.25;23.08;;;1.20;94.80;;;;;;5007042;28;20030;-52
2021/12/06 04:42:17;;;;;;;33.17;20.30;;;1.20;94.60;;;;;;5005916;28;20045;-52
2021/12/06 04:44:43;;;;;;;39.55;22.35;;;0.90;94.40;;;;;;5007029;28;20048;-51
2021/12/06 04:47:09;;;;;;;34.95;22.38;;;1.00;94.50;;;;;;5006985;28;20030;-49
2021/12/06 04:49:35;;;;;;;30.88;21.27;;;0.90;94.50;;;;;;5007162;28;20045;-48
2021/12/06 04:52:05;;;;;;;34.88;22.27;;;0.90;94.60;;;;;;5007152;28;20027;-49
2021/12/06 04:54:36;;;;;;;39.95;23.15;;;0.90;94.70;;;;;;5006981;28;20030;-51
2021/12/06 04:57:09;;;;;;;;;;;1.00;94.80;;;;;;5007357;28;20398;-50
2021/12/06 04:59:38;;;;;;;33.28;19.58;;;1.00;94.70;;;;;;5007076;28;19935;-48
2021/12/06 05:02:11;;;;;;;26.40;17.58;;;0.80;94.50;;;;;;5006503;28;20046;-49
2021/12/06 05:04:38;;;;;;;22.92;16.05;;;0.60;94.50;;;;;;5006798;28;20031;-50
2021/12/06 05:07:29;;;;;;;27.00;16.88;;;0.60;94.50;;;;;;5006817;28;20049;-48
2021/12/06 05:09:55;;;;;;;24.05;15.30;;;0.50;94.50;;;;;;5006621;28;20022;-48
2021/12/06 05:12:24;;;;;;;26.73;18.08;;;0.50;94.60;;;;;;5004945;28;20038;-50
2021/12/06 05:14:50;;;;;;;35.05;19.17;;;0.60;94.70;;;;;;4993455;28;20054;-49
2021/12/06 05:17:16;;;;;;;29.42;17.98;;;0.80;94.80;;;;;;4993312;28;20338;-48
2021/12/06 05:19:42;;;;;;;29.67;18.10;;;0.80;94.70;;;;;;4993408;28;20030;-52
2021/12/06 05:22:08;;;;;;;29.25;18.25;;;0.70;94.60;;;;;;4993915;28;20027;-51
2021/12/06 05:24:35;;;;;;;26.35;16.40;;;0.60;94.50;;;;;;4993509;28;20026;-49
2021/12/06 05:27:00;;;;;;;25.20;16.65;;;0.40;94.40;;;;;;4993343;28;20026;-49
2021/12/06 05:29:29;;;;;;;25.50;16.52;;;0.30;94.40;;;;;;4993662;28;20042;-47
2021/12/06 05:31:58;;;;;;;24.60;17.50;;;0.30;94.40;;;;;;4991854;28;20026;-48
2021/12/06 05:34:34;;;;;;;28.58;16.63;;;0.30;94.40;;;;;;4992446;28;20022;-50
2021/12/06 05:37:00;;;;;;;32.90;17.17;;;0.30;94.60;;;;;;4993102;28;20082;-49
2021/12/06 05:39:30;;;;;;;28.05;16.60;;;0.30;94.70;;;;;;4993282;28;20026;-48
2021/12/06 05:41:58;;;;;;;23.70;16.88;;;0.30;94.70;;;;;;4993785;28;20049;-48
2021/12/06 05:44:23;;;;;;;31.48;17.45;;;0.40;94.90;;;;;;4993333;28;20485;-48
2021/12/06 05:46:49;;;;;;;34.78;18.48;;;0.40;94.90;;;;;;4993038;28;20018;-52
2021/12/06 05:49:14;;;;;;;30.95;18.98;;;0.40;94.90;;;;;;4993212;28;20026;-51
2021/12/06 05:51:41;;;;;;;35.85;17.75;;;0.40;94.80;;;;;;4993322;28;20034;-48
2021/12/06 05:54:06;;;;;;;30.27;17.52;;;0.40;94.80;;;;;;4993495;28;20030;-51
2021/12/06 05:56:32;;;;;;;26.13;17.42;;;0.40;94.80;;;;;;4993106;28;20486;-52
2021/12/06 05:58:58;;;;;;;28.00;18.00;;;0.40;94.90;;;;;;4993063;28;20132;-49
2021/12/06 06:01:29;;;;;;;36.08;20.67;;;0.40;94.90;;;;;;4992914;28;20050;-52
2021/12/06 06:03:55;;;;;;;34.50;21.35;;;0.80;95.10;;;;;;4992302;28;20019;-48
2021/12/06 06:06:21;;;;;;;31.70;20.15;;;0.80;94.90;;;;;;4993121;28;20022;-49
2021/12/06 06:08:46;;;;;;;33.40;20.58;;;0.90;94.80;;;;;;4992870;28;20556;-51
2021/12/06 06:11:12;;;;;;;35.47;20.13;;;1.00;94.70;;;;;;4993163;28;20106;-48
2021/12/06 06:13:38;;;;;;;29.05;19.70;;;1.00;94.60;;;;;;4992753;28;20030;-48
2021/12/06 06:16:03;;;;;;;29.33;19.40;;;1.10;94.60;;;;;;4993099;28;20030;-48
2021/12/06 06:18:29;;;;;;;27.70;18.58;;;1.20;94.60;;;;;;4992927;28;20398;-49
2021/12/06 06:20:55;;;;;;;31.27;19.85;;;1.30;94.60;;;;;;4993097;28;20097;-50
2021/12/06 06:23:22;;;;;;;28.67;17.75;;;1.50;94.60;;;;;;4992758;28;20214;-50
2021/12/06 06:25:48;;;;;;;24.42;17.20;;;1.40;94.30;;;;;;4991364;28;20030;-49
2021/12/06 06:28:14;;;;;;;31.73;18.80;;;1.60;94.30;;;;;;4992235;28;20026;-52
2021/12/06 06:30:40;;;;;;;28.80;18.38;;;1.50;93.90;;;;;;4992794;28;20109;-53
2021/12/06 06:33:06;;;;;;;37.28;19.17;;;1.50;93.70;;;;;;4992570;28;20026;-51
2021/12/06 06:35:33;;;;;;;58.88;22.00;;;1.70;93.90;;;;;;4992228;28;20098;-49
2021/12/06 06:37:59;;;;;;;65.95;24.15;;;1.70;93.40;;;;;;4992261;28;20030;-53
2021/12/06 06:40:25;;;;;;;132.68;28.13;;;1.70;93.30;;;;;;4992178;28;20435;-49
2021/12/06 06:42:51;;;;;;;117.95;26.98;;;1.70;93.40;;;;;;4992215;28;20034;-49
2021/12/06 06:45:22;;;;;;;83.22;25.90;;;1.60;93.70;;;;;;4992169;28;20489;-51
2021/12/06 06:47:48;;;;;;;99.82;28.95;;;1.50;94.00;;;;;;4991926;28;20496;-52
2021/12/06 06:50:14;;;;;;;90.82;32.78;;;1.40;94.30;;;;;;4991709;28;20101;-51
2021/12/06 06:52:40;;;;;;;103.47;32.78;;;1.30;94.60;;;;;;4991696;28;20033;-50
2021/12/06 06:55:07;;;;;;;135.90;38.72;;;1.30;94.70;;;;;;4991713;28;20031;-49
2021/12/06 06:57:33;;;;;;;175.68;44.42;;;1.30;94.70;;;;;;4991785;28;20466;-50
2021/12/06 06:59:59;;;;;;;116.07;37.03;;;1.30;94.80;;;;;;4992159;28;20418;-53
2021/12/06 07:02:25;;;;;;;179.75;37.40;;;1.30;94.80;;;;;;4991789;28;20050;-50
2021/12/06 07:04:51;;;;;;;166.93;40.22;;;1.20;94.90;;;;;;4990302;28;20534;-49
2021/12/06 07:07:17;;;;;;;146.30;40.08;;;1.30;95.10;;;;;;4991956;28;20030;-51
2021/12/06 07:09:43;;;;;;;130.13;39.38;;;1.50;95.20;;;;;;4991742;28;20118;-52
2021/12/06 07:12:15;;;;;;;152.77;36.50;;;1.60;95.20;;;;;;4991625;28;20034;-49
2021/12/06 07:14:41;;;;;;;164.60;40.55;;;1.50;95.10;;;;;;4991644;28;20065;-51
2021/12/06 07:17:07;;;;;;;144.32;37.10;;;1.60;95.10;;;;;;4991375;28;20441;-52
2021/12/06 07:19:33;;;;;;;169.25;38.35;;;1.50;95.00;;;;;;4991755;28;20031;-53
2021/12/06 07:21:59;;;;;;;196.90;38.38;;;1.50;95.00;;;;;;4991452;28;20026;-50
2021/12/06 07:24:25;;;;;;;235.38;40.13;;;1.50;94.90;;;;;;4991597;28;20026;-51
2021/12/06 07:26:51;;;;;;;214.48;39.47;;;1.60;94.90;;;;;;4991338;28;20038;-50
2021/12/06 07:29:17;;;;;;;230.23;44.38;;;1.60;94.90;;;;;;4990904;28;20038;-49
2021/12/06 07:31:43;;;;;;;175.60;40.05;;;1.70;94.90;;;;;;4990763;28;20410;-53
2021/12/06 07:34:08;;;;;;;233.65;42.95;;;1.70;94.90;;;;;;4991532;28;20058;-55
2021/12/06 07:36:34;;;;;;;257.58;44.90;;;1.50;94.70;;;;;;4989781;28;20030;-53
2021/12/06 07:39:00;;;;;;;187.63;41.90;;;1.60;94.90;;;;;;4991772;28;20531;-52
2021/12/06 07:41:28;;;;;;;218.35;43.22;;;1.60;94.80;;;;;;4991671;28;20394;-51
2021/12/06 07:43:56;;;;;;;203.63;43.47;;;1.50;94.70;;;;;;4991964;28;20031;-51
2021/12/06 07:46:22;;;;;;;215.90;42.13;;;1.80;95.00;;;;;;4991678;28;20026;-51
2021/12/06 07:48:52;;;;;;;146.82;36.45;;;1.70;94.90;;;;;;4992000;28;20029;-51
2021/12/06 07:51:23;;;;;;;209.57;42.83;;;1.80;95.10;;;;;;4992511;28;20034;-50
2021/12/06 07:53:50;;;;;;;142.20;36.42;;;1.80;94.80;;;;;;4990215;28;20030;-52
2021/12/06 07:56:16;;;;;;;108.88;33.38;;;1.80;94.90;;;;;;4992139;28;20030;-52
2021/12/06 07:58:42;;;;;;;144.20;37.75;;;1.60;94.60;;;;;;4991637;28;20026;-48
2021/12/06 14:03:08;;;;;;;101.85;44.35;;;3.10;94.10;;;;;;5090505;28;20706;-39
2021/12/06 14:05:34;;;;;;;97.80;46.03;;;3.20;94.30;;;;;;5089027;28;20071;-39
2021/12/06 14:08:00;;;;;;;98.40;45.15;;;3.30;94.40;;;;;;5090492;28;20376;-40
2021/12/06 14:10:25;;;;;;;94.00;44.60;;;3.40;94.30;;;;;;5088798;28;20520;-40
2021/12/06 14:12:51;;;;;;;86.90;41.72;;;3.40;94.30;;;;;;5090422;28;20028;-40
2021/12/06 14:15:25;;;;;;;86.05;40.90;;;3.30;94.10;;;;;;5090409;28;20028;-40
2021/12/06 14:17:53;;;;;;;92.93;41.92;;;3.40;94.20;;;;;;5089970;28;20024;-39
2021/12/06 14:20:21;;;;;;;74.68;37.67;;;3.40;93.90;;;;;;5089885;28;20055;-40
2021/12/06 14:22:48;;;;;;;83.60;41.13;;;3.50;93.90;;;;;;5089927;28;20032;-39
2021/12/06 14:25:17;;;;;;;72.63;37.17;;;3.50;93.50;;;;;;5090037;28;20456;-40
2021/12/06 14:27:43;;;;;;;72.80;36.80;;;3.50;93.30;;;;;;5088267;28;20039;-40
2021/12/06 14:30:17;;;;;;;72.50;35.10;;;3.50;93.30;;;;;;5090017;28;20499;-39
2021/12/06 14:32:57;;;;;;;65.28;34.50;;;3.60;93.30;;;;;;5089966;28;20097;-40
2021/12/06 14:35:26;;;;;;;72.63;34.53;;;3.50;93.30;;;;;;5090031;28;20036;-40
2021/12/06 14:37:53;;;;;;;72.75;35.90;;;3.60;93.40;;;;;;5089020;28;20029;-39
2021/12/06 14:40:21;;;;;;;75.25;36.45;;;3.40;93.10;;;;;;5087771;28;20111;-39
2021/12/06 14:42:47;;;;;;;71.97;33.92;;;3.50;93.30;;;;;;5089612;28;20042;-39
2021/12/06 14:45:14;;;;;;;73.82;35.10;;;3.50;93.30;;;;;;5089604;28;20095;-39
2021/12/06 14:47:47;;;;;;;71.38;38.60;;;3.50;93.20;;;;;;5089153;28;20087;-38
2021/12/06 14:50:49;;;;;;;79.18;36.75;;;3.70;93.30;;;;;;5089589;28;20028;-39
2021/12/06 14:53:10;;;;;;;80.90;38.47;;;3.50;92.80;;;;;;5088990;28;20554;-39
2021/12/06 14:58:14;;;;;;;82.88;36.88;;;3.50;92.90;;;;;;5089147;28;20020;-39
2021/12/06 15:01:02;;;;;;;85.15;37.83;;;3.60;92.90;;;;;;5089163;28;20468;-41
2021/12/06 15:03:32;;;;;;;99.03;45.08;;;3.50;92.80;;;;;;5090221;28;20016;-40
2021/12/06 15:06:03;;;;;;;83.85;36.83;;;3.40;92.80;;;;;;5090366;28;20016;-39
2021/12/06 15:08:35;;;;;;;88.00;41.22;;;3.60;92.80;;;;;;5089754;28;20020;-39
2021/12/06 15:11:12;;;;;;;87.93;37.83;;;3.50;92.30;;;;;;5090326;28;20032;-38
2021/12/06 15:13:42;;;;;;;84.80;39.30;;;3.50;92.60;;;;;;5081649;28;20360;-40
2021/12/06 15:16:12;;;;;;;99.82;42.13;;;3.50;92.40;;;;;;5076775;28;20025;-40
2021/12/06 15:18:39;;;;;;;79.13;39.33;;;3.30;92.40;;;;;;5076353;28;20028;-39
2021/12/06 15:21:06;;;;;;;84.97;38.63;;;3.30;92.70;;;;;;5076280;28;20311;-38
2021/12/06 15:23:48;;;;;;;86.70;39.38;;;3.20;92.90;;;;;;5075795;28;20024;-39
2021/12/06 15:26:20;;;;;;;91.90;40.50;;;3.20;93.00;;;;;;5075408;28;20116;-39
2021/12/06 15:28:46;;;;;;;89.65;38.78;;;3.20;93.10;;;;;;5075377;28;20385;-40
2021/12/06 15:31:14;;;;;;;89.82;39.95;;;3.20;93.20;;;;;;5075341;28;20098;-40
2021/12/06 15:33:42;;;;;;;85.05;41.58;;;3.20;93.30;;;;;;5075365;28;20484;-40
2021/12/06 15:36:10;;;;;;;84.63;40.13;;;3.30;93.10;;;;;;5057417;28;20028;-40
2021/12/06 15:38:39;;;;;;;89.97;40.67;;;3.20;92.90;;;;;;5075710;28;20021;-41
2021/12/06 15:41:12;;;;;;;104.78;43.35;;;3.30;93.00;;;;;;5075847;28;20025;-39
2021/12/06 15:43:43;;;;;;;95.95;42.38;;;3.00;92.70;;;;;;5075207;28;20024;-40
2021/12/06 15:46:11;;;;;;;102.60;40.88;;;3.00;92.90;;;;;;5075662;28;20059;-39
2021/12/06 15:48:39;;;;;;;114.25;43.95;;;3.00;93.10;;;;;;5075385;28;20024;-40
2021/12/06 15:51:14;;;;;;;113.40;44.70;;;3.00;93.20;;;;;;5074950;28;20222;-39
2021/12/06 15:53:46;;;;;;;105.25;44.70;;;3.00;93.20;;;;;;5075320;28;20024;-39
2021/12/06 15:56:13;;;;;;;103.65;44.15;;;2.90;93.20;;;;;;5075312;28;20107;-39
2021/12/06 15:58:40;;;;;;;144.52;49.42;;;2.90;93.30;;;;;;5075018;28;20101;-39
2021/12/06 16:01:08;;;;;;;159.13;47.63;;;2.90;93.10;;;;;;5073543;28;20052;-39
2021/12/06 16:03:47;;;;;;;128.27;44.78;;;2.90;93.20;;;;;;5073712;28;20017;-39
2021/12/06 16:06:17;;;;;;;130.30;46.15;;;2.80;93.20;;;;;;5075181;28;20097;-40
2021/12/06 16:08:47;;;;;;;159.60;48.50;;;2.80;93.40;;;;;;5073964;28;20361;-39
2021/12/06 16:11:16;;;;;;;132.40;47.13;;;2.70;93.50;;;;;;5075535;28;20024;-40
2021/12/06 16:13:45;;;;;;;196.50;47.22;;;2.80;93.90;;;;;;5075419;28;20293;-38
2021/12/06 16:16:18;;;;;;;188.15;50.33;;;3.00;94.00;;;;;;5075300;28;20028;-38
2021/12/06 16:18:51;;;;;;;209.30;55.00;;;3.00;93.70;;;;;;5075468;28;20460;-39
2021/12/06 16:21:30;;;;;;;261.65;56.28;;;2.90;93.50;;;;;;5075224;28;20417;-39
2021/12/06 16:23:59;;;;;;;203.30;55.45;;;2.90;93.60;;;;;;5073916;28;20025;-38
2021/12/06 16:26:34;;;;;;;147.60;50.47;;;2.80;93.60;;;;;;5074270;28;20581;-39
2021/12/06 16:29:06;;;;;;;220.50;57.17;;;2.80;93.70;;;;;;5074368;28;20024;-39
2021/12/06 16:31:36;;;;;;;256.73;58.97;;;2.80;93.90;;;;;;5074329;28;20027;-40
2021/12/06 16:34:08;;;;;;;250.88;58.17;;;2.90;94.10;;;;;;5073127;28;20024;-42
2021/12/06 16:36:47;;;;;;;202.68;53.65;;;3.00;94.10;;;;;;5074222;28;20037;-39
2021/12/06 16:39:20;;;;;;;216.27;55.95;;;2.80;93.90;;;;;;5072880;28;20066;-40
2021/12/06 16:42:04;;;;;;;212.75;57.53;;;2.90;94.10;;;;;;5073985;28;20028;-40
2021/12/06 16:44:35;;;;;;;216.23;57.58;;;2.90;94.10;;;;;;5074515;28;20119;-39
2021/12/06 16:47:20;;;;;;;125.65;46.90;;;2.80;94.10;;;;;;5074423;28;20465;-38
2021/12/06 16:50:03;;;;;;;188.93;53.08;;;2.80;94.10;;;;;;5074614;28;20052;-39
2021/12/06 16:52:42;;;;;;;116.60;45.60;;;2.80;94.40;;;;;;5074304;28;20029;-39
2021/12/06 16:55:18;;;;;;;166.60;48.13;;;2.80;94.40;;;;;;5074190;28;20062;-39
2021/12/06 16:57:51;;;;;;;136.93;48.42;;;2.80;94.40;;;;;;5073920;28;20020;-39
2021/12/06 17:00:48;;;;;;;144.32;47.22;;;2.80;94.40;;;;;;5072993;28;20365;-38
2021/12/06 17:03:20;;;;;;;126.97;48.22;;;2.80;94.50;;;;;;5074160;28;20533;-40
2021/12/06 17:05:53;;;;;;;134.02;47.20;;;2.70;94.60;;;;;;5074313;28;20035;-38
2021/12/06 17:08:35;;;;;;;115.63;47.25;;;2.90;94.80;;;;;;5074055;28;20025;-39
2021/12/06 17:11:17;;;;;;;128.23;46.70;;;2.80;94.60;;;;;;5074001;28;20472;-39
2021/12/06 17:13:55;;;;;;;111.85;44.15;;;2.80;94.60;;;;;;5074973;28;20036;-39
2021/12/06 17:16:26;;;;;;;109.30;43.97;;;2.80;94.50;;;;;;5073607;28;20048;-39
2021/12/06 17:18:53;;;;;;;92.65;37.97;;;2.80;94.60;;;;;;5073603;28;20020;-39
2021/12/06 17:21:24;;;;;;;80.90;35.55;;;2.80;94.50;;;;;;5072758;28;20392;-39
2021/12/06 17:23:52;;;;;;;72.22;33.25;;;2.80;94.40;;;;;;5071954;28;20024;-39
2021/12/06 17:26:27;;;;;;;48.45;23.73;;;2.80;94.20;;;;;;5073407;28;20026;-39
2021/12/06 17:29:03;;;;;;;32.60;17.63;;;2.80;93.70;;;;;;5073239;28;20358;-39
2021/12/06 17:31:41;;;;;;;20.90;11.27;;;2.90;92.70;;;;;;5073319;28;20415;-39
2021/12/06 17:34:10;;;;;;;25.17;11.95;;;3.00;91.10;;;;;;5073275;28;20415;-39
2021/12/06 17:36:41;;;;;;;26.05;10.35;;;3.10;89.80;;;;;;5073641;28;20495;-39
2021/12/06 17:39:10;;;;;;;19.02;8.45;;;3.20;89.10;;;;;;5073938;28;20039;-39
2021/12/06 17:41:38;;;;;;;13.88;8.05;;;3.30;88.20;;;;;;5075154;28;20480;-39
2021/12/06 17:44:05;;;;;;;14.65;8.00;;;3.30;87.60;;;;;;5074338;28;20070;-40
2021/12/06 17:46:31;;;;;;;15.68;7.65;;;3.20;87.30;;;;;;5073934;28;20017;-39
2021/12/06 17:48:59;;;;;;;10.95;6.38;;;3.30;87.00;;;;;;5073486;28;20043;-43
2021/12/06 17:51:26;;;;;;;10.32;6.13;;;3.30;86.50;;;;;;5071797;28;20028;-40
2021/12/06 17:53:53;;;;;;;9.07;5.95;;;3.30;86.10;;;;;;5073334;28;20021;-40
2021/12/06 17:56:24;;;;;;;10.20;5.13;;;3.20;86.50;;;;;;5073259;28;20024;-40
2021/12/06 18:01:24;;;;;;;10.98;6.13;;;3.30;86.60;;;;;;5073305;28;20040;-40
2021/12/06 18:03:50;;;;;;;9.73;6.03;;;3.30;86.10;;;;;;5073168;28;20456;-38
2021/12/06 18:06:16;;;;;;;10.50;6.32;;;3.30;86.00;;;;;;5072774;28;20314;-40
2021/12/06 18:08:42;;;;;;;10.57;5.57;;;3.30;85.60;;;;;;5073632;28;20031;-40
2021/12/06 18:11:07;;;;;;;9.85;5.50;;;3.40;85.50;;;;;;5072865;28;20055;-39
2021/12/06 18:13:33;;;;;;;9.57;5.53;;;3.30;85.80;;;;;;5073058;28;20143;-38
2021/12/06 18:16:00;;;;;;;7.07;5.18;;;3.40;85.30;;;;;;5073242;28;20439;-38
2021/12/06 18:18:26;;;;;;;7.43;5.03;;;3.40;85.10;;;;;;5072915;28;20025;-39
2021/12/06 18:20:52;;;;;;;8.07;5.28;;;3.40;85.20;;;;;;5073011;28;20030;-38
2021/12/06 18:23:19;;;;;;;16.70;5.97;;;3.30;85.50;;;;;;5073083;28;20024;-40
2021/12/06 18:25:45;;;;;;;5.15;4.28;;;3.30;85.70;;;;;;5073164;28;20020;-40
2021/12/06 18:28:14;;;;;;;10.70;5.30;;;3.40;85.30;;;;;;5071327;28;20445;-38
2021/12/06 18:30:41;;;;;;;9.70;6.25;;;3.50;84.70;;;;;;5073025;28;20020;-39
2021/12/06 18:33:08;;;;;;;8.60;6.45;;;3.50;84.60;;;;;;5073338;28;20035;-40
2021/12/06 18:35:34;;;;;;;8.43;5.18;;;3.50;84.40;;;;;;5073056;28;20025;-38
2021/12/06 18:38:04;;;;;;;9.30;5.45;;;3.50;84.20;;;;;;5072536;28;20039;-39
2021/12/06 18:40:36;;;;;;;8.13;4.68;;;3.50;83.80;;;;;;5072385;28;20033;-38
2021/12/06 18:43:03;;;;;;;9.90;4.90;;;3.60;83.80;;;;;;5072948;28;20032;-39
2021/12/06 18:45:31;;;;;;;6.25;4.03;;;3.50;83.40;;;;;;5072578;28;20480;-38
2021/12/06 18:48:00;;;;;;;8.75;5.30;;;3.60;83.60;;;;;;5073121;28;20025;-39
2021/12/06 18:50:30;;;;;;;9.85;6.63;;;3.50;83.60;;;;;;5076386;28;20024;-39
2021/12/06 18:52:58;;;;;;;11.35;6.53;;;3.60;83.70;;;;;;5076448;28;20109;-40
2021/12/06 18:55:25;;;;;;;17.48;6.32;;;3.50;83.60;;;;;;5076579;28;20020;-39
2021/12/06 18:57:51;;;;;;;12.35;5.75;;;3.60;83.60;;;;;;5076278;28;20028;-40
2021/12/06 19:00:22;;;;;;;12.82;6.38;;;3.50;83.60;;;;;;5075974;28;20400;-39
2021/12/06 19:02:48;;;;;;;5.72;4.15;;;3.50;83.60;;;;;;5074689;28;20036;-38
2021/12/06 19:05:15;;;;;;;7.65;4.57;;;3.50;83.50;;;;;;5076506;28;20078;-38
2021/12/06 19:07:41;;;;;;;11.32;6.00;;;3.50;83.50;;;;;;5075956;28;20031;-39
2021/12/06 19:10:10;;;;;;;9.13;5.78;;;3.50;83.00;;;;;;5074727;28;20032;-39
2021/12/06 19:12:36;;;;;;;9.32;5.78;;;3.50;83.10;;;;;;5076128;28;20025;-39
2021/12/06 19:15:04;;;;;;;12.18;5.45;;;3.50;83.20;;;;;;5075955;28;20032;-38
2021/12/06 19:17:29;;;;;;;10.88;6.97;;;3.50;82.90;;;;;;5075670;28;20504;-38
2021/12/06 19:19:55;;;;;;;10.25;6.40;;;3.50;82.80;;;;;;5075903;28;20071;-39
2021/12/06 19:22:21;;;;;;;12.43;6.50;;;3.50;83.00;;;;;;5074597;28;20028;-39
2021/12/06 19:24:47;;;;;;;13.38;6.65;;;3.60;82.70;;;;;;5076396;28;20028;-39
2021/12/06 19:27:13;;;;;;;12.02;6.25;;;3.60;82.60;;;;;;5075808;28;20103;-39
2021/12/06 19:29:40;;;;;;;17.95;7.40;;;3.50;82.90;;;;;;5075340;28;20120;-40
2021/12/06 19:32:08;;;;;;;13.77;7.25;;;3.50;83.00;;;;;;5075810;28;20032;-40
2021/12/06 19:34:36;;;;;;;12.13;7.05;;;3.60;82.70;;;;;;5075630;28;20020;-40
2021/12/06 19:37:03;;;;;;;10.15;7.28;;;3.60;82.90;;;;;;5075322;28;20024;-38
2021/12/06 19:39:31;;;;;;;12.13;7.30;;;3.60;82.70;;;;;;5075641;28;20415;-39
2021/12/06 19:41:58;;;;;;;14.00;7.72;;;3.60;82.60;;;;;;5075463;28;20523;-39
2021/12/06 19:44:24;;;;;;;13.80;8.45;;;3.60;82.40;;;;;;5075570;28;20025;-39
2021/12/06 19:46:50;;;;;;;12.15;6.32;;;3.60;82.40;;;;;;5075227;28;20078;-38
2021/12/06 19:49:15;;;;;;;9.48;6.40;;;3.50;82.80;;;;;;5073943;28;20456;-38
2021/12/06 19:51:41;;;;;;;12.75;7.63;;;3.40;82.80;;;;;;5075823;28;20040;-39
2021/12/06 19:54:07;;;;;;;10.07;5.85;;;3.50;82.70;;;;;;5075988;28;20507;-39
2021/12/06 19:56:34;;;;;;;10.32;6.25;;;3.50;82.50;;;;;;5074620;28;20025;-39
2021/12/06 19:59:03;;;;;;;9.98;6.38;;;3.60;82.50;;;;;;5075239;28;20111;-40
2021/12/06 20:01:29;;;;;;;13.27;6.47;;;3.60;82.40;;;;;;5075827;28;20067;-40
2021/12/06 20:03:55;;;;;;;14.48;8.40;;;3.60;82.40;;;;;;5075485;28;20020;-39
2021/12/06 20:06:21;;;;;;;12.32;7.75;;;3.60;82.20;;;;;;5075382;28;20380;-38
2021/12/06 20:08:47;;;;;;;9.35;6.30;;;3.60;82.40;;;;;;5075740;28;20032;-38
2021/12/06 20:11:14;;;;;;;10.25;6.18;;;3.60;82.10;;;;;;5075691;28;20020;-39
2021/12/06 20:13:42;;;;;;;11.07;5.65;;;3.60;82.20;;;;;;5075438;28;20036;-39
2021/12/06 20:16:10;;;;;;;11.02;6.80;;;3.50;82.40;;;;;;5075450;28;20024;-38
2021/12/06 20:18:37;;;;;;;9.20;6.47;;;3.60;82.40;;;;;;5075059;28;20028;-40
2021/12/06 20:21:04;;;;;;;9.35;5.72;;;3.80;81.80;;;;;;5075156;28;20048;-40
2021/12/06 20:23:30;;;;;;;8.30;6.22;;;3.60;81.60;;;;;;5075056;28;20053;-40
2021/12/06 20:25:57;;;;;;;8.70;4.97;;;3.70;81.50;;;;;;5074166;28;20457;-39
2021/12/06 20:28:24;;;;;;;7.60;4.25;;;3.70;81.10;;;;;;5075056;28;20453;-39
2021/12/06 20:30:51;;;;;;;9.77;5.57;;;3.70;81.40;;;;;;5074835;28;20029;-39
2021/12/06 20:33:18;;;;;;;8.52;4.97;;;3.70;81.20;;;;;;5074499;28;20036;-39
2021/12/06 20:35:45;;;;;;;10.35;5.90;;;3.80;80.90;;;;;;5074415;28;20017;-39
2021/12/06 20:38:12;;;;;;;7.78;4.63;;;3.80;80.90;;;;;;5074206;28;20020;-37
2021/12/06 20:40:38;;;;;;;9.90;5.22;;;3.80;80.70;;;;;;5073307;28;20107;-38
2021/12/06 20:43:04;;;;;;;8.98;5.72;;;3.80;80.70;;;;;;5074815;28;20095;-38
2021/12/06 20:45:32;;;;;;;6.63;3.80;;;3.80;80.90;;;;;;5074392;28;20016;-38
2021/12/06 20:48:03;;;;;;;8.40;5.32;;;3.80;80.50;;;;;;5074601;28;20039;-39
2021/12/06 20:50:29;;;;;;;11.63;5.22;;;3.80;80.80;;;;;;5074522;28;20545;-39
2021/12/06 20:52:59;;;;;;;7.85;4.57;;;3.90;80.30;;;;;;5074429;28;20040;-39
2021/12/06 20:55:25;;;;;;;9.38;5.38;;;4.00;79.90;;;;;;5074029;28;20090;-38
2021/12/06 20:57:51;;;;;;;10.63;6.20;;;4.00;79.70;;;;;;5073816;28;20033;-39
2021/12/06 21:00:20;;;;;;;9.35;5.80;;;3.80;80.50;;;;;;5074159;28;20031;-39
2021/12/06 21:02:46;;;;;;;6.70;4.28;;;3.90;80.40;;;;;;5074010;28;20409;-52
2021/12/06 21:05:12;;;;;;;7.85;5.13;;;3.90;80.40;;;;;;5073984;28;20027;-50
2021/12/06 21:07:40;;;;;;;9.90;5.82;;;3.90;79.90;;;;;;5074279;28;20440;-51
2021/12/06 21:10:19;;;;;;;5.70;3.85;;;3.90;80.50;;;;;;5073982;28;20093;-49
2021/12/06 21:16:13;;;;;;;7.25;5.97;;;3.90;80.00;;;;;;5074334;28;20388;-38
2021/12/06 21:18:16;;;;;;;9.60;5.70;;;4.00;79.90;;;;;;5074015;28;20031;-38
2021/12/06 21:20:42;;;;;;;9.30;5.43;;;3.90;80.20;;;;;;5074239;28;20390;-39
2021/12/06 21:23:08;;;;;;;6.75;4.88;;;4.00;80.20;;;;;;5073872;28;20524;-38
2021/12/06 21:25:33;;;;;;;10.95;6.35;;;4.10;80.00;;;;;;5073710;28;20465;-38
2021/12/06 21:27:59;;;;;;;9.05;5.43;;;4.10;79.80;;;;;;5074183;28;20411;-38
2021/12/06 21:30:25;;;;;;;11.30;5.90;;;4.10;80.10;;;;;;5073770;28;20417;-39
2021/12/06 21:32:50;;;;;;;9.90;6.10;;;4.00;79.90;;;;;;5073908;28;20032;-39
2021/12/06 21:35:16;;;;;;;9.57;5.68;;;4.10;80.10;;;;;;5072345;28;20127;-38
2021/12/06 21:37:41;;;;;;;11.13;5.75;;;4.10;80.30;;;;;;5073907;28;20025;-38
2021/12/06 21:40:11;;;;;;;7.72;5.22;;;4.10;80.30;;;;;;5072062;28;20029;-39
2021/12/06 21:42:38;;;;;;;12.00;5.63;;;4.20;80.00;;;;;;5071863;28;20172;-40
2021/12/06 21:45:04;;;;;;;10.13;5.40;;;4.20;80.00;;;;;;5073786;28;20099;-39
2021/12/06 21:47:34;;;;;;;8.60;4.93;;;4.10;80.40;;;;;;5071935;28;20111;-40
2021/12/06 21:50:10;;;;;;;9.77;4.82;;;4.10;80.50;;;;;;5073545;28;20020;-38
2021/12/06 21:52:36;;;;;;;7.78;5.53;;;4.10;80.40;;;;;;5073289;28;20021;-39
2021/12/06 21:55:04;;;;;;;10.43;5.75;;;4.00;80.80;;;;;;5073018;28;20025;-39
2021/12/06 21:57:29;;;;;;;10.23;5.60;;;4.10;80.90;;;;;;5072995;28;20032;-39
2021/12/06 21:59:55;;;;;;;10.85;5.07;;;4.10;81.00;;;;;;5073017;28;20024;-38
2021/12/06 22:02:22;;;;;;;9.27;5.93;;;4.10;81.00;;;;;;5071460;28;20148;-39
2021/12/06 22:04:48;;;;;;;8.85;5.45;;;4.00;81.70;;;;;;5073271;28;20020;-38
2021/12/06 22:07:15;;;;;;;12.60;7.55;;;4.00;82.00;;;;;;5073151;28;20447;-39
2021/12/06 22:09:42;;;;;;;10.50;5.47;;;4.00;82.00;;;;;;5073615;28;20050;-39
2021/12/06 22:12:08;;;;;;;11.57;6.40;;;4.10;81.70;;;;;;5072018;28;20101;-39
2021/12/06 22:14:34;;;;;;;9.40;5.38;;;4.00;82.20;;;;;;5072847;28;20029;-39
2021/12/06 22:17:00;;;;;;;10.00;5.22;;;3.90;82.70;;;;;;5072006;28;20024;-39
2021/12/06 22:19:32;;;;;;;12.40;5.05;;;4.00;82.70;;;;;;5073098;28;20028;-40
2021/12/06 22:21:57;;;;;;;10.50;6.28;;;3.90;83.10;;;;;;5072978;28;20024;-38
2021/12/06 22:24:23;;;;;;;11.35;5.78;;;3.80;83.80;;;;;;5075879;28;20030;-38
2021/12/06 22:26:50;;;;;;;8.80;5.35;;;3.80;84.40;;;;;;5077229;28;20024;-38
2021/12/06 22:29:16;;;;;;;10.02;6.75;;;3.80;85.00;;;;;;5077037;28;20028;-39
2021/12/06 22:31:42;;;;;;;14.30;7.70;;;3.60;86.00;;;;;;5075602;28;20029;-38
2021/12/06 22:34:09;;;;;;;12.25;6.25;;;3.60;86.30;;;;;;5076897;28;20025;-39
2021/12/06 22:36:38;;;;;;;11.10;5.63;;;3.60;86.70;;;;;;5077082;28;20028;-39
2021/12/06 22:39:04;;;;;;;7.18;4.63;;;3.50;87.20;;;;;;5077463;28;20029;-39
2021/12/06 22:41:30;;;;;;;10.45;6.22;;;3.40;87.90;;;;;;5076514;28;20094;-40
2021/12/06 22:43:56;;;;;;;15.40;7.50;;;3.30;87.90;;;;;;5076488;28;20464;-39
2021/12/06 22:46:21;;;;;;;13.32;7.97;;;3.30;88.50;;;;;;5076602;28;20376;-39
2021/12/06 22:48:47;;;;;;;9.05;5.15;;;3.30;88.80;;;;;;5076660;28;20028;-41
2021/12/06 22:51:13;;;;;;;11.20;6.35;;;3.30;89.00;;;;;;5076634;28;20492;-39
2021/12/06 22:53:39;;;;;;;10.23;6.57;;;3.20;89.20;;;;;;5076703;28;20028;-38
2021/12/06 22:56:08;;;;;;;9.93;6.45;;;3.10;89.30;;;;;;5076882;28;20029;-39
2021/12/06 22:58:34;;;;;;;8.13;5.43;;;3.10;90.00;;;;;;5077095;28;20070;-39
